Time;durP1;ratioP1;P1;durP2;ratioP2;P2;SDS_P1;SDS_P2;PMS_P1;PMS_P2;Temp;Humidity;BMP_temperature;BMP_pressure;BME280_temperature;BME280_humidity;BME280_pressure;Samples;Min_cycle;Max_cycle;Signal;HPM_P1;HPM_P2
2023/05/31 00:03:25;;;;;;;;;;;19.70;57.10;;;;;;10213739;28;92184;-62
2023/05/31 00:08:27;;;;;;;;;;;19.70;57.10;;;;;;10212101;28;93246;-62
2023/05/31 00:13:28;;;;;;;;;;;19.70;57.00;;;;;;10212723;28;93520;-62
2023/05/31 00:18:30;;;;;;;;;;;19.70;57.00;;;;;;10192421;28;96652;-62
2023/05/31 00:23:32;;;;;;;;;;;19.70;57.00;;;;;;10194842;28;94453;-62
2023/05/31 00:28:34;;;;;;;;;;;19.70;57.00;;;;;;10194384;28;93422;-67
2023/05/31 00:33:36;;;;;;;;;;;19.70;57.00;;;;;;10211561;28;93790;-62
2023/05/31 00:38:38;;;;;;;;;;;19.70;57.00;;;;;;10209907;28;93955;-62
2023/05/31 00:43:40;;;;;;;;;;;19.70;57.00;;;;;;10193989;28;93044;-62
2023/05/31 00:48:42;;;;;;;;;;;19.70;57.00;;;;;;10210660;28;94516;-62
2023/05/31 00:53:44;;;;;;;;;;;19.70;56.90;;;;;;10212173;28;92945;-62
2023/05/31 00:58:46;;;;;;;;;;;19.60;56.90;;;;;;10210028;28;93514;-62
2023/05/31 01:03:48;;;;;;;;;;;19.60;56.90;;;;;;10210340;28;94161;-62
2023/05/31 01:08:51;;;;;;;;;;;19.70;57.00;;;;;;10207532;28;96987;-61
2023/05/31 01:14:01;;;;;;;;;;;19.70;57.00;;;;;;10209879;28;94523;-62
2023/05/31 01:19:06;;;;;;;;;;;19.60;56.90;;;;;;10209645;28;93461;-62
2023/05/31 01:24:18;;;;;;;;;;;19.60;56.90;;;;;;10191889;28;92548;-62
2023/05/31 01:29:21;;;;;;;;;;;19.60;56.90;;;;;;10192775;28;94618;-65
2023/05/31 01:34:23;;;;;;;;;;;19.60;56.90;;;;;;10209286;28;94051;-62
2023/05/31 01:39:25;;;;;;;;;;;19.60;56.80;;;;;;10209631;28;93710;-67
2023/05/31 01:44:27;;;;;;;;;;;19.60;56.80;;;;;;10210892;28;94338;-62
2023/05/31 01:49:29;;;;;;;;;;;19.60;56.70;;;;;;10209380;28;93720;-60
2023/05/31 01:54:30;;;;;;;;;;;19.60;56.70;;;;;;10191139;28;93258;-62
2023/05/31 01:59:35;;;;;;;;;;;19.60;56.70;;;;;;10206631;28;96101;-62
2023/05/31 02:04:37;;;;;;;;;;;19.60;56.60;;;;;;10208819;28;93767;-62
2023/05/31 02:09:39;;;;;;;;;;;19.60;56.60;;;;;;10209438;28;93336;-61
2023/05/31 02:14:41;;;;;;;;;;;19.60;56.60;;;;;;10192462;28;93531;-61
2023/05/31 02:19:46;;;;;;;;;;;19.60;56.60;;;;;;10208745;28;94620;-61
2023/05/31 02:24:48;;;;;;;;;;;19.60;56.50;;;;;;10208654;28;92897;-62
2023/05/31 02:29:50;;;;;;;;;;;19.60;56.60;;;;;;10207495;28;93622;-62
2023/05/31 02:34:52;;;;;;;;;;;19.60;56.60;;;;;;10208096;28;92903;-62
2023/05/31 02:39:54;;;;;;;;;;;19.60;56.50;;;;;;10207707;28;94546;-66
2023/05/31 02:44:56;;;;;;;;;;;19.50;56.50;;;;;;10208492;28;94594;-62
2023/05/31 02:49:58;;;;;;;;;;;19.50;56.40;;;;;;10203947;28;95918;-67
2023/05/31 02:55:00;;;;;;;;;;;19.50;56.50;;;;;;10207192;28;94662;-61
2023/05/31 03:00:12;;;;;;;;;;;19.50;56.60;;;;;;10207052;28;93568;-62
2023/05/31 03:05:14;;;;;;;;;;;19.50;56.50;;;;;;10206554;28;93431;-62
2023/05/31 03:10:16;;;;;;;;;;;19.50;56.50;;;;;;10206456;28;93593;-67
2023/05/31 03:15:18;;;;;;;;;;;19.40;56.40;;;;;;10206730;28;93633;-62
2023/05/31 03:20:19;;;;;;;;;;;19.50;56.40;;;;;;10189341;28;93590;-62
2023/05/31 03:25:21;;;;;;;;;;;19.40;56.40;;;;;;10207199;28;92449;-62
2023/05/31 03:30:23;;;;;;;;;;;19.40;56.40;;;;;;10207044;28;93623;-62
2023/05/31 03:35:25;;;;;;;;;;;19.40;56.50;;;;;;10206103;28;95027;-62
2023/05/31 03:40:27;;;;;;;;;;;19.40;56.50;;;;;;10203638;28;96072;-62
2023/05/31 03:45:29;;;;;;;;;;;19.40;56.50;;;;;;10206410;28;93757;-62
2023/05/31 03:50:31;;;;;;;;;;;19.40;56.50;;;;;;10205881;28;93678;-63
2023/05/31 03:55:33;;;;;;;;;;;19.40;56.40;;;;;;10206024;28;94568;-62
2023/05/31 04:00:34;;;;;;;;;;;19.40;56.40;;;;;;10206190;28;93779;-62
2023/05/31 04:05:36;;;;;;;;;;;19.40;56.40;;;;;;10205209;28;93482;-62
2023/05/31 04:10:38;;;;;;;;;;;19.40;56.30;;;;;;10203943;28;93510;-62
2023/05/31 04:15:40;;;;;;;;;;;19.40;56.40;;;;;;10191675;28;92968;-62
2023/05/31 04:20:42;;;;;;;;;;;19.40;56.30;;;;;;10211924;28;93782;-62
2023/05/31 04:25:44;;;;;;;;;;;19.40;56.30;;;;;;10212476;28;93217;-62
2023/05/31 04:30:46;;;;;;;;;;;19.40;56.30;;;;;;10209668;28;96981;-62
2023/05/31 04:35:48;;;;;;;;;;;19.40;56.30;;;;;;10211343;28;93613;-67
2023/05/31 04:40:50;;;;;;;;;;;19.40;56.30;;;;;;10211969;28;93823;-67
2023/05/31 04:51:12;;;;;;;;;;;19.40;56.30;;;;;;10316065;22;94144;-65
2023/05/31 04:56:14;;;;;;;;;;;19.40;56.30;;;;;;10211000;28;93639;-65
2023/05/31 05:01:16;;;;;;;;;;;19.40;56.40;;;;;;10210572;28;94621;-64
2023/05/31 05:06:22;;;;;;;;;;;19.40;56.40;;;;;;10210831;28;93113;-65
2023/05/31 05:11:23;;;;;;;;;;;19.40;57.60;;;;;;10210894;28;93542;-65
2023/05/31 05:16:25;;;;;;;;;;;19.40;58.10;;;;;;10206800;28;93608;-64
2023/05/31 05:21:28;;;;;;;;;;;19.40;57.90;;;;;;10203900;28;96839;-65
2023/05/31 05:26:30;;;;;;;;;;;19.40;57.80;;;;;;10188266;28;93677;-64
2023/05/31 05:31:32;;;;;;;;;;;19.40;57.80;;;;;;10207799;28;92568;-65
2023/05/31 05:36:34;;;;;;;;;;;19.30;58.00;;;;;;10210030;28;93601;-64
2023/05/31 05:41:35;;;;;;;;;;;19.30;58.20;;;;;;10208960;28;93112;-65
2023/05/31 05:46:37;;;;;;;;;;;19.40;58.30;;;;;;10208830;28;94555;-65
2023/05/31 05:51:39;;;;;;;;;;;19.30;58.30;;;;;;10208980;28;93457;-65
2023/05/31 05:56:40;;;;;;;;;;;19.30;58.40;;;;;;10192528;28;94002;-65
2023/05/31 06:01:42;;;;;;;;;;;19.30;58.40;;;;;;10208219;28;93175;-65
2023/05/31 06:06:44;;;;;;;;;;;19.40;58.50;;;;;;10207979;28;94510;-64
2023/05/31 06:11:47;;;;;;;;;;;19.40;58.40;;;;;;10204965;28;96372;-65
2023/05/31 06:16:49;;;;;;;;;;;19.40;58.40;;;;;;10174876;28;94586;-65
2023/05/31 06:21:53;;;;;;;;;;;19.40;58.30;;;;;;10207758;28;92542;-65
2023/05/31 06:26:55;;;;;;;;;;;19.40;58.30;;;;;;10208171;28;94761;-64
2023/05/31 06:31:56;;;;;;;;;;;19.50;58.10;;;;;;10206693;28;92468;-65
2023/05/31 06:37:00;;;;;;;;;;;19.60;58.00;;;;;;10207093;28;94575;-65
2023/05/31 06:42:02;;;;;;;;;;;19.60;57.90;;;;;;10207039;28;93488;-65
2023/05/31 06:47:04;;;;;;;;;;;19.60;57.90;;;;;;10189622;28;93813;-65
2023/05/31 06:52:06;;;;;;;;;;;19.70;58.90;;;;;;10206531;28;93480;-64
2023/05/31 06:57:08;;;;;;;;;;;19.70;57.90;;;;;;10207380;28;94427;-64
2023/05/31 07:02:09;;;;;;;;;;;19.80;57.90;;;;;;10205180;28;96992;-64
2023/05/31 07:07:11;;;;;;;;;;;19.90;57.70;;;;;;10206259;28;94618;-64
2023/05/31 07:12:13;;;;;;;;;;;19.90;57.50;;;;;;10205983;28;94468;-65
2023/05/31 07:17:14;;;;;;;;;;;20.00;57.40;;;;;;10206225;28;93372;-65
2023/05/31 07:22:17;;;;;;;;;;;20.00;57.10;;;;;;10206564;28;94770;-65
2023/05/31 07:27:19;;;;;;;;;;;20.10;57.20;;;;;;10188692;28;94346;-65
2023/05/31 07:32:21;;;;;;;;;;;20.10;57.20;;;;;;10188901;28;93439;-65
2023/05/31 07:37:23;;;;;;;;;;;20.10;57.10;;;;;;10206444;28;92537;-65
2023/05/31 07:42:25;;;;;;;;;;;20.10;57.10;;;;;;10205074;28;93480;-65
2023/05/31 07:47:27;;;;;;;;;;;20.10;57.20;;;;;;10204604;28;93646;-65
2023/05/31 07:52:29;;;;;;;;;;;20.00;57.10;;;;;;10207915;28;96159;-65
2023/05/31 07:57:31;;;;;;;;;;;20.00;57.10;;;;;;10212683;28;94552;-65
2023/05/31 08:02:32;;;;;;;;;;;20.00;57.30;;;;;;10212979;28;92848;-65
2023/05/31 08:07:35;;;;;;;;;;;20.00;57.20;;;;;;10194088;28;93463;-65
2023/05/31 08:12:37;;;;;;;;;;;20.00;57.30;;;;;;10211644;28;94458;-65
2023/05/31 08:17:39;;;;;;;;;;;20.00;57.40;;;;;;10211953;28;94648;-65
2023/05/31 08:22:41;;;;;;;;;;;20.00;58.40;;;;;;10194961;28;93293;-65
2023/05/31 08:27:43;;;;;;;;;;;20.00;57.50;;;;;;10212948;28;93611;-65
2023/05/31 08:32:45;;;;;;;;;;;19.90;57.50;;;;;;10210668;28;93545;-65
2023/05/31 08:37:47;;;;;;;;;;;19.90;57.60;;;;;;10211723;28;93616;-65
2023/05/31 08:42:52;;;;;;;;;;;19.90;57.50;;;;;;10191255;28;95938;-65
2023/05/31 08:48:22;;;;;;;;;;;20.00;57.50;;;;;;10193806;28;93104;-65
2023/05/31 08:53:25;;;;;;;;;;;20.00;57.50;;;;;;10177988;28;114399;-65
2023/05/31 08:58:28;;;;;;;;;;;20.00;57.40;;;;;;10209956;28;93728;-65
2023/05/31 09:03:31;;;;;;;;;;;20.00;57.30;;;;;;10210215;28;93510;-65
2023/05/31 09:08:33;;;;;;;;;;;20.00;57.40;;;;;;10209660;28;93462;-65
2023/05/31 09:13:35;;;;;;;;;;;20.00;57.50;;;;;;10209746;28;93470;-65
2023/05/31 09:18:38;;;;;;;;;;;19.90;57.50;;;;;;10210693;28;93888;-65
2023/05/31 09:23:53;;;;;;;;;;;19.90;58.50;;;;;;10209940;28;93496;-66
2023/05/31 09:28:55;;;;;;;;;;;19.90;57.40;;;;;;10209380;28;93661;-65
2023/05/31 09:33:57;;;;;;;;;;;19.90;57.50;;;;;;10207463;28;96017;-64
2023/05/31 09:39:08;;;;;;;;;;;19.90;57.50;;;;;;10209823;28;92852;-65
2023/05/31 09:44:10;;;;;;;;;;;19.90;57.50;;;;;;10209353;28;93522;-65
2023/05/31 09:49:11;;;;;;;;;;;19.90;57.50;;;;;;10190658;28;94431;-65
2023/05/31 09:54:14;;;;;;;;;;;20.00;57.40;;;;;;10208392;28;93894;-65
2023/05/31 09:59:16;;;;;;;;;;;20.00;57.20;;;;;;10208044;28;94503;-65
2023/05/31 10:04:18;;;;;;;;;;;20.10;57.20;;;;;;10208061;28;94069;-65
2023/05/31 10:09:20;;;;;;;;;;;20.10;57.20;;;;;;10209766;28;95774;-65
2023/05/31 10:14:27;;;;;;;;;;;20.20;57.00;;;;;;10189880;28;93674;-65
2023/05/31 10:19:34;;;;;;;;;;;20.30;56.90;;;;;;10208046;28;93692;-65
2023/05/31 10:24:50;;;;;;;;;;;20.40;56.80;;;;;;10205547;28;95886;-65
2023/05/31 10:30:05;;;;;;;;;;;20.40;56.70;;;;;;10175320;28;92719;-65
2023/05/31 10:35:08;;;;;;;;;;;20.40;56.60;;;;;;10207592;28;93217;-65
2023/05/31 10:40:16;;;;;;;;;;;20.50;56.60;;;;;;10208128;28;94033;-65
2023/05/31 10:45:25;;;;;;;;;;;20.50;56.60;;;;;;10207203;28;93395;-65
2023/05/31 10:50:27;;;;;;;;;;;20.50;56.50;;;;;;10207027;28;93605;-65
2023/05/31 10:55:29;;;;;;;;;;;20.50;56.50;;;;;;10208480;28;94617;-65
2023/05/31 11:00:31;;;;;;;;;;;20.50;56.50;;;;;;10208142;28;92644;-65
2023/05/31 11:05:33;;;;;;;;;;;20.50;57.50;;;;;;10205948;28;94069;-65
2023/05/31 11:10:35;;;;;;;;;;;20.60;56.60;;;;;;10207797;28;92880;-65
2023/05/31 11:15:40;;;;;;;;;;;20.50;56.60;;;;;;10205073;28;96898;-65
2023/05/31 11:20:42;;;;;;;;;;;20.50;56.60;;;;;;10189849;28;95106;-65
2023/05/31 11:25:44;;;;;;;;;;;20.50;56.70;;;;;;10204781;28;94057;-65
2023/05/31 11:30:46;;;;;;;;;;;20.50;56.70;;;;;;10206400;28;92609;-65
2023/05/31 11:35:48;;;;;;;;;;;20.50;56.70;;;;;;10206116;28;94631;-65
2023/05/31 11:40:50;;;;;;;;;;;20.50;56.80;;;;;;10189480;28;93610;-65
2023/05/31 11:45:52;;;;;;;;;;;20.50;56.90;;;;;;10188867;28;94518;-66
2023/05/31 11:50:55;;;;;;;;;;;20.50;57.00;;;;;;10187676;28;93142;-65
2023/05/31 11:55:58;;;;;;;;;;;20.50;57.00;;;;;;10189009;28;92940;-66
2023/05/31 12:01:00;;;;;;;;;;;20.50;57.00;;;;;;10189380;28;93638;-64
2023/05/31 12:06:04;;;;;;;;;;;20.50;57.00;;;;;;10186639;28;96804;-65
2023/05/31 12:11:06;;;;;;;;;;;20.40;57.00;;;;;;10207140;28;93686;-65
2023/05/31 12:16:08;;;;;;;;;;;20.40;57.10;;;;;;10204946;28;93909;-65
2023/05/31 12:21:15;;;;;;;;;;;20.40;57.10;;;;;;10205512;28;94528;-65
2023/05/31 12:26:16;;;;;;;;;;;20.50;57.30;;;;;;10204315;28;94592;-65
2023/05/31 12:31:22;;;;;;;;;;;20.40;57.20;;;;;;10204745;28;94485;-65
2023/05/31 12:36:26;;;;;;;;;;;20.50;57.30;;;;;;10206693;28;93583;-65
2023/05/31 12:41:27;;;;;;;;;;;20.50;57.20;;;;;;10211819;28;92935;-65
2023/05/31 12:46:36;;;;;;;;;;;20.50;57.30;;;;;;10210451;28;94617;-65
2023/05/31 12:51:38;;;;;;;;;;;20.50;57.30;;;;;;10211689;28;94444;-66
2023/05/31 12:56:40;;;;;;;;;;;20.50;57.40;;;;;;10208390;28;96955;-65
2023/05/31 13:01:41;;;;;;;;;;;20.50;57.40;;;;;;10193130;28;92886;-65
2023/05/31 13:06:43;;;;;;;;;;;20.40;57.30;;;;;;10210689;28;94529;-65
2023/05/31 13:11:48;;;;;;;;;;;20.50;57.40;;;;;;10208954;28;93531;-65
2023/05/31 13:16:50;;;;;;;;;;;20.50;57.40;;;;;;10210322;28;94070;-65
2023/05/31 13:21:52;;;;;;;;;;;20.50;57.40;;;;;;10191597;28;93517;-65
2023/05/31 13:26:54;;;;;;;;;;;20.50;57.40;;;;;;10192080;28;94604;-65
2023/05/31 13:31:56;;;;;;;;;;;20.50;57.50;;;;;;10210953;28;94008;-65
2023/05/31 13:36:58;;;;;;;;;;;20.40;57.50;;;;;;10209287;28;93547;-65
2023/05/31 13:42:01;;;;;;;;;;;20.50;57.70;;;;;;10191806;28;94539;-65
2023/05/31 13:47:03;;;;;;;;;;;20.50;57.70;;;;;;10206453;28;97017;-66
2023/05/31 13:52:06;;;;;;;;;;;20.50;57.70;;;;;;10208810;28;94412;-65
2023/05/31 13:57:08;;;;;;;;;;;20.50;57.80;;;;;;10191147;28;93594;-65
2023/05/31 14:02:10;;;;;;;;;;;20.50;57.80;;;;;;10207702;28;94603;-65
2023/05/31 14:07:11;;;;;;;;;;;20.50;58.80;;;;;;10208588;28;94528;-65
2023/05/31 14:12:13;;;;;;;;;;;20.50;57.90;;;;;;10208555;28;93644;-65
2023/05/31 14:17:15;;;;;;;;;;;20.50;57.90;;;;;;10208243;28;93532;-65
2023/05/31 14:22:16;;;;;;;;;;;20.50;58.00;;;;;;10208650;28;92807;-65
2023/05/31 14:27:18;;;;;;;;;;;20.50;58.00;;;;;;10207124;28;93338;-65
2023/05/31 14:32:20;;;;;;;;;;;20.50;58.10;;;;;;10189842;28;94292;-65
2023/05/31 14:37:22;;;;;;;;;;;20.50;58.10;;;;;;10187842;28;96921;-64
2023/05/31 14:42:40;;;;;;;;;;;20.50;58.10;;;;;;10207451;28;93999;-65
2023/05/31 14:47:42;;;;;;;;;;;20.50;58.20;;;;;;10208523;28;94315;-64
2023/05/31 14:52:45;;;;;;;;;;;20.40;58.20;;;;;;10207127;28;94413;-66
2023/05/31 14:57:46;;;;;;;;;;;20.40;58.20;;;;;;10205838;28;92848;-65
2023/05/31 15:02:48;;;;;;;;;;;20.40;58.30;;;;;;10206106;28;94657;-65
2023/05/31 15:07:50;;;;;;;;;;;20.40;58.40;;;;;;10206829;28;94145;-64
2023/05/31 15:12:53;;;;;;;;;;;20.40;58.30;;;;;;10189989;28;92212;-65
2023/05/31 15:17:54;;;;;;;;;;;20.40;58.40;;;;;;10205529;28;93742;-65
2023/05/31 15:22:56;;;;;;;;;;;20.40;58.40;;;;;;10206484;28;94205;-65
2023/05/31 15:27:58;;;;;;;;;;;20.40;58.50;;;;;;10203537;28;96973;-65
2023/05/31 15:33:00;;;;;;;;;;;20.40;58.50;;;;;;10206025;28;94501;-65
2023/05/31 15:38:02;;;;;;;;;;;20.40;58.50;;;;;;10204767;28;93671;-65
2023/05/31 15:43:04;;;;;;;;;;;20.40;58.50;;;;;;10164420;28;93684;-65
2023/05/31 15:48:05;;;;;;;;;;;20.40;59.40;;;;;;10164405;28;93541;-63
2023/05/31 15:53:07;;;;;;;;;;;20.50;59.40;;;;;;10165025;28;94509;-65
2023/05/31 15:58:09;;;;;;;;;;;20.50;59.60;;;;;;10151899;28;94492;-65
2023/05/31 16:03:11;;;;;;;;;;;20.50;59.70;;;;;;10181038;28;92951;-64
2023/05/31 16:08:13;;;;;;;;;;;20.50;59.70;;;;;;10162450;28;92562;-63
2023/05/31 16:13:14;;;;;;;;;;;20.60;59.80;;;;;;10169364;28;94604;-64
2023/05/31 16:18:16;;;;;;;;;;;20.70;61.90;;;;;;10170078;28;95870;-63
2023/05/31 16:23:18;;;;;;;;;;;20.80;62.40;;;;;;10170821;28;93506;-64
2023/05/31 16:28:21;;;;;;;;;;;20.90;62.50;;;;;;10168763;28;94599;-64
2023/05/31 16:33:23;;;;;;;;;;;21.00;64.00;;;;;;10167717;28;94748;-65
2023/05/31 16:38:25;;;;;;;;;;;21.10;62.90;;;;;;10167284;28;93393;-64
2023/05/31 16:43:27;;;;;;;;;;;21.20;62.50;;;;;;10168061;28;94315;-65
2023/05/31 16:48:30;;;;;;;;;;;21.20;62.50;;;;;;10169569;28;93568;-65
2023/05/31 16:53:32;;;;;;;;;;;21.30;62.50;;;;;;10170432;28;93280;-65
2023/05/31 16:58:33;;;;;;;;;;;21.30;62.60;;;;;;10170788;28;94414;-64
2023/05/31 17:03:35;;;;;;;;;;;21.30;63.30;;;;;;10169606;28;93685;-64
2023/05/31 17:08:37;;;;;;;;;;;21.30;63.40;;;;;;10167784;28;96613;-65
2023/05/31 17:13:38;;;;;;;;;;;21.40;63.40;;;;;;10169822;28;94488;-64
2023/05/31 17:18:40;;;;;;;;;;;21.50;64.50;;;;;;10170438;28;93565;-64
2023/05/31 17:23:45;;;;;;;;;;;21.50;64.10;;;;;;10171715;28;94607;-65
2023/05/31 17:28:47;;;;;;;;;;;21.50;63.80;;;;;;10169701;28;92912;-64
2023/05/31 17:33:49;;;;;;;;;;;21.50;63.80;;;;;;10152100;28;94460;-64
2023/05/31 17:38:51;;;;;;;;;;;21.50;64.00;;;;;;10169202;28;93273;-65
2023/05/31 17:43:53;;;;;;;;;;;21.50;64.10;;;;;;10169708;28;93917;-66
2023/05/31 17:48:55;;;;;;;;;;;21.50;64.10;;;;;;10168972;28;94785;-65
2023/05/31 17:53:57;;;;;;;;;;;21.50;64.10;;;;;;10167993;28;93248;-66
2023/05/31 17:58:59;;;;;;;;;;;21.60;64.00;;;;;;10166523;28;96915;-65
2023/05/31 18:04:01;;;;;;;;;;;21.60;64.00;;;;;;10168646;28;94496;-66
2023/05/31 18:09:06;;;;;;;;;;;21.60;63.80;;;;;;10167737;28;94445;-65
2023/05/31 18:14:07;;;;;;;;;;;21.70;63.70;;;;;;10168529;28;94445;-66
2023/05/31 18:19:09;;;;;;;;;;;21.80;64.50;;;;;;10168293;28;94197;-65
2023/05/31 18:24:12;;;;;;;;;;;21.80;64.80;;;;;;10167941;28;94791;-65
2023/05/31 18:29:14;;;;;;;;;;;21.90;64.40;;;;;;10167376;28;94505;-66
2023/05/31 18:34:16;;;;;;;;;;;21.90;64.60;;;;;;10166584;28;93701;-65
2023/05/31 18:39:17;;;;;;;;;;;21.90;64.30;;;;;;10168151;28;93499;-65
2023/05/31 18:44:19;;;;;;;;;;;21.80;64.50;;;;;;10166863;28;94450;-65
2023/05/31 18:49:21;;;;;;;;;;;21.70;64.20;;;;;;10146681;28;96587;-65
2023/05/31 18:54:24;;;;;;;;;;;21.60;63.70;;;;;;10167684;28;93521;-65
2023/05/31 18:59:25;;;;;;;;;;;21.50;63.60;;;;;;10149306;28;93528;-65
2023/05/31 19:04:27;;;;;;;;;;;21.50;63.60;;;;;;10166885;28;94639;-65
2023/05/31 19:09:29;;;;;;;;;;;21.40;63.60;;;;;;10165549;28;93532;-65
2023/05/31 19:14:31;;;;;;;;;;;21.40;63.60;;;;;;10167158;28;94548;-66
2023/05/31 19:19:33;;;;;;;;;;;21.40;63.70;;;;;;10167054;28;94495;-65
2023/05/31 19:24:35;;;;;;;;;;;21.30;63.60;;;;;;10150015;28;92849;-65
2023/05/31 19:29:37;;;;;;;;;;;21.20;63.60;;;;;;10165396;28;93691;-65
2023/05/31 19:34:38;;;;;;;;;;;21.20;63.70;;;;;;10166138;28;94506;-66
2023/05/31 19:39:40;;;;;;;;;;;21.20;63.60;;;;;;10163112;28;98922;-66
2023/05/31 19:44:42;;;;;;;;;;;21.10;63.60;;;;;;10149334;28;94355;-66
2023/05/31 19:49:43;;;;;;;;;;;21.10;63.70;;;;;;10154699;28;93605;-65
2023/05/31 19:54:45;;;;;;;;;;;21.10;63.50;;;;;;10172672;28;94643;-65
2023/05/31 19:59:47;;;;;;;;;;;21.10;64.30;;;;;;10172656;28;94498;-65
2023/05/31 20:04:49;;;;;;;;;;;21.10;63.60;;;;;;10154577;28;93990;-64
2023/05/31 20:09:51;;;;;;;;;;;21.10;63.30;;;;;;10171978;28;93959;-65
2023/05/31 20:14:53;;;;;;;;;;;21.10;63.00;;;;;;10170909;28;93477;-64
2023/05/31 20:19:55;;;;;;;;;;;21.00;63.00;;;;;;10172337;28;93182;-65
2023/05/31 20:24:56;;;;;;;;;;;21.00;63.00;;;;;;10171350;28;94612;-64
2023/05/31 20:29:58;;;;;;;;;;;21.00;62.90;;;;;;10168186;28;95922;-65
2023/05/31 20:35:00;;;;;;;;;;;20.90;62.80;;;;;;10153325;28;94585;-65
2023/05/31 20:40:02;;;;;;;;;;;20.90;62.80;;;;;;10171491;28;94399;-64
2023/05/31 20:45:05;;;;;;;;;;;20.90;62.70;;;;;;10172649;28;93281;-65
2023/05/31 20:50:11;;;;;;;;;;;20.90;62.40;;;;;;10152095;28;93736;-65
2023/05/31 20:55:13;;;;;;;;;;;20.80;62.20;;;;;;10170255;28;94500;-65
2023/05/31 21:00:17;;;;;;;;;;;20.80;62.10;;;;;;10152659;28;93857;-65
2023/05/31 21:05:19;;;;;;;;;;;20.80;62.00;;;;;;10153794;28;92956;-65
2023/05/31 21:10:21;;;;;;;;;;;20.80;61.80;;;;;;10170746;28;94307;-65
2023/05/31 21:15:23;;;;;;;;;;;20.70;61.60;;;;;;10151731;28;93732;-65
2023/05/31 21:20:25;;;;;;;;;;;20.70;61.60;;;;;;10149900;28;96132;-65
2023/05/31 21:25:26;;;;;;;;;;;20.70;61.50;;;;;;10169144;28;93536;-65
2023/05/31 21:30:28;;;;;;;;;;;20.70;61.30;;;;;;10168765;28;93645;-65
2023/05/31 21:35:30;;;;;;;;;;;20.70;61.20;;;;;;10169225;28;94558;-65
2023/05/31 21:40:32;;;;;;;;;;;20.70;61.10;;;;;;10168274;28;94456;-65
2023/05/31 21:45:34;;;;;;;;;;;20.70;60.90;;;;;;10168627;28;93586;-65
2023/05/31 21:50:35;;;;;;;;;;;20.70;60.90;;;;;;10168408;28;94439;-65
2023/05/31 21:55:37;;;;;;;;;;;20.70;60.70;;;;;;10169205;28;93116;-65
2023/05/31 22:00:39;;;;;;;;;;;20.60;60.60;;;;;;10168130;28;93687;-65
2023/05/31 22:05:41;;;;;;;;;;;20.60;60.50;;;;;;10168144;28;93374;-65
2023/05/31 22:10:43;;;;;;;;;;;20.60;60.40;;;;;;10166184;28;95361;-65
2023/05/31 22:15:50;;;;;;;;;;;20.60;60.30;;;;;;10167745;28;93976;-65
2023/05/31 22:20:55;;;;;;;;;;;20.60;60.20;;;;;;10167589;28;94696;-65
2023/05/31 22:25:57;;;;;;;;;;;20.60;60.30;;;;;;10167663;28;94113;-65
2023/05/31 22:30:58;;;;;;;;;;;20.50;60.10;;;;;;10167959;28;93838;-65
2023/05/31 22:36:00;;;;;;;;;;;20.50;60.00;;;;;;10167293;28;94548;-65
2023/05/31 22:41:02;;;;;;;;;;;20.50;60.10;;;;;;10167121;28;93453;-64
2023/05/31 22:46:04;;;;;;;;;;;20.50;60.00;;;;;;10168512;28;93760;-65
2023/05/31 22:51:11;;;;;;;;;;;20.50;60.00;;;;;;10166841;28;93607;-66
2023/05/31 22:56:13;;;;;;;;;;;20.50;60.00;;;;;;10167907;28;94981;-64
2023/05/31 23:01:14;;;;;;;;;;;20.50;60.00;;;;;;10164392;28;96950;-65
2023/05/31 23:06:17;;;;;;;;;;;20.50;59.90;;;;;;10166602;28;93903;-65
2023/05/31 23:11:21;;;;;;;;;;;20.50;59.90;;;;;;10149407;28;94464;-65
2023/05/31 23:16:24;;;;;;;;;;;20.40;59.70;;;;;;10167503;28;92723;-65
2023/05/31 23:21:27;;;;;;;;;;;20.40;59.70;;;;;;10166540;28;94956;-65
2023/05/31 23:26:29;;;;;;;;;;;20.40;59.60;;;;;;10148723;28;94410;-66
2023/05/31 23:31:31;;;;;;;;;;;20.40;59.60;;;;;;10166596;28;94383;-66
2023/05/31 23:36:33;;;;;;;;;;;20.40;59.60;;;;;;10149690;28;93740;-65
2023/05/31 23:41:34;;;;;;;;;;;20.40;59.50;;;;;;10164997;28;94678;-65
2023/05/31 23:46:36;;;;;;;;;;;20.40;59.50;;;;;;10149615;28;93147;-65
2023/05/31 23:51:38;;;;;;;;;;;20.40;59.50;;;;;;10162983;28;95462;-65
2023/05/31 23:56:40;;;;;;;;;;;20.40;59.40;;;;;;10165529;28;94486;-65
